createdAt,value
2022-08-30T00:01:50.466Z,15.16
2022-08-30T00:04:54.359Z,15.18
2022-08-30T00:07:57.585Z,15.25
2022-08-30T00:11:00.363Z,14.88
2022-08-30T00:14:02.554Z,15.04
2022-08-30T00:17:04.737Z,15.08
2022-08-30T00:20:08.701Z,14.75
2022-08-30T00:23:10.930Z,15.01
2022-08-30T00:26:13.082Z,15.04
2022-08-30T00:29:15.231Z,14.79
2022-08-30T00:32:18.476Z,14.98
2022-08-30T00:35:20.687Z,14.81
2022-08-30T00:38:24.274Z,14.54
2022-08-30T00:41:26.377Z,14.93
2022-08-30T00:44:28.531Z,14.64
2022-08-30T00:47:30.639Z,14.77
2022-08-30T00:50:43.403Z,14.73
2022-08-30T00:53:50.467Z,14.50
2022-08-30T00:56:52.554Z,14.54
2022-08-30T00:59:54.643Z,14.87
2022-08-30T01:02:56.869Z,14.85
2022-08-30T01:05:59.034Z,14.72
2022-08-30T01:09:02.229Z,14.71
2022-08-30T01:12:05.014Z,14.69
2022-08-30T01:15:07.693Z,14.49
2022-08-30T01:18:11.595Z,14.78
2022-08-30T01:21:41.368Z,14.76
2022-08-30T01:24:43.794Z,14.63
2022-08-30T01:27:53.839Z,14.82
2022-08-30T01:30:56.258Z,14.57
2022-08-30T01:33:58.390Z,14.98
2022-08-30T01:37:00.531Z,15.07
2022-08-30T01:40:03.148Z,14.84
2022-08-30T01:43:05.307Z,15.03
2022-08-30T01:46:07.883Z,15.04
2022-08-30T01:49:13.744Z,14.98
2022-08-30T01:52:16.238Z,14.84
2022-08-30T01:55:18.400Z,14.96
2022-08-30T01:58:20.542Z,15.04
2022-08-30T02:01:26.227Z,14.88
2022-08-30T02:04:28.346Z,14.70
2022-08-30T02:07:30.506Z,14.87
2022-08-30T02:10:32.750Z,14.69
2022-08-30T02:13:35.319Z,14.76
2022-08-30T02:16:37.457Z,14.90
2022-08-30T02:19:40.235Z,14.85
2022-08-30T02:22:43.415Z,14.95
2022-08-30T02:25:53.127Z,14.63
2022-08-30T02:28:55.313Z,14.55
2022-08-30T02:31:57.463Z,14.63
2022-08-30T02:34:59.569Z,14.77
2022-08-30T02:38:01.690Z,14.79
2022-08-30T02:41:03.948Z,14.78
2022-08-30T02:44:07.022Z,14.89
2022-08-30T02:47:09.155Z,14.83
2022-08-30T02:50:11.702Z,14.42
2022-08-30T02:53:14.170Z,14.23
2022-08-30T02:56:18.476Z,14.24
2022-08-30T02:59:21.003Z,13.98
2022-08-30T03:02:23.242Z,13.63
2022-08-30T03:05:26.144Z,13.44
2022-08-30T03:08:28.273Z,13.20
2022-08-30T03:11:30.386Z,13.18
2022-08-30T03:14:32.885Z,13.11
2022-08-30T03:17:35.096Z,12.69
2022-08-30T03:20:37.208Z,12.59
2022-08-30T03:23:40.875Z,12.60
2022-08-30T03:26:46.258Z,12.11
2022-08-30T03:29:48.797Z,12.08
2022-08-30T03:32:51.408Z,12.08
2022-08-30T03:35:53.549Z,11.81
2022-08-30T03:38:55.646Z,11.58
2022-08-30T03:41:57.768Z,11.30
2022-08-30T03:45:04.514Z,11.28
2022-08-30T03:48:06.675Z,11.34
2022-08-30T03:51:08.831Z,11.31
2022-08-30T03:54:11.010Z,11.28
2022-08-30T03:57:13.408Z,11.41
2022-08-30T04:00:22.519Z,11.48
2022-08-30T04:03:26.122Z,11.45
2022-08-30T04:06:28.469Z,11.37
2022-08-30T04:09:31.385Z,11.39
2022-08-30T04:12:33.454Z,11.36
2022-08-30T04:15:35.534Z,11.30
2022-08-30T04:18:37.752Z,11.29
2022-08-30T04:21:43.115Z,11.30
2022-08-30T04:24:45.421Z,11.26
2022-08-30T04:27:47.581Z,11.10
2022-08-30T04:30:49.649Z,11.09
2022-08-30T04:33:51.705Z,11.01
2022-08-30T04:36:53.784Z,10.90
2022-08-30T04:39:57.693Z,10.91
2022-08-30T04:43:00.218Z,10.88
2022-08-30T04:46:05.640Z,10.83
2022-08-30T04:49:08.191Z,10.89
2022-08-30T04:52:11.040Z,10.84
2022-08-30T04:55:16.836Z,10.94
2022-08-30T04:58:22.049Z,10.99
2022-08-30T05:01:26.906Z,11.01
2022-08-30T05:04:29.467Z,10.92
2022-08-30T05:07:31.887Z,10.94
2022-08-30T05:10:34.428Z,10.82
2022-08-30T05:13:36.986Z,10.93
2022-08-30T05:16:39.757Z,10.96
2022-08-30T05:19:41.915Z,11.03
2022-08-30T05:22:53.570Z,11.19
2022-08-30T05:25:56.222Z,11.39
2022-08-30T05:28:58.608Z,11.36
2022-08-30T05:32:00.751Z,11.26
2022-08-30T05:35:06.574Z,11.32
2022-08-30T05:38:08.780Z,11.58
2022-08-30T05:41:12.363Z,11.51
2022-08-30T05:44:14.446Z,11.45
2022-08-30T05:47:16.564Z,11.71
2022-08-30T05:50:18.772Z,11.69
2022-08-30T05:53:20.839Z,11.92
2022-08-30T05:56:30.143Z,11.71
2022-08-30T05:59:32.239Z,11.96
2022-08-30T06:02:34.317Z,11.78
2022-08-30T06:05:37.669Z,11.90
2022-08-30T06:08:40.403Z,11.80
2022-08-30T06:11:43.698Z,11.88
2022-08-30T06:14:45.807Z,11.67
2022-08-30T06:17:48.556Z,11.98
2022-08-30T06:20:51.336Z,11.94
2022-08-30T06:23:53.692Z,11.77
2022-08-30T06:26:55.821Z,11.93
2022-08-30T06:29:57.907Z,11.66
2022-08-30T06:33:00.086Z,11.88
2022-08-30T06:36:07.048Z,12.04
2022-08-30T06:39:09.247Z,12.09
2022-08-30T06:42:11.362Z,12.07
2022-08-30T06:45:15.512Z,12.23
2022-08-30T06:48:17.807Z,12.51
2022-08-30T06:51:28.791Z,12.37
2022-08-30T06:54:31.394Z,12.72
2022-08-30T06:57:33.502Z,12.90
2022-08-30T07:00:35.574Z,13.08
2022-08-30T07:03:38.795Z,12.81
2022-08-30T07:06:40.884Z,12.88
2022-08-30T07:09:43.673Z,13.24
2022-08-30T07:12:45.885Z,13.63
2022-08-30T07:15:48.132Z,13.58
2022-08-30T07:18:56.538Z,14.14
2022-08-30T07:21:58.611Z,13.87
2022-08-30T07:25:00.934Z,13.99
2022-08-30T07:28:03.460Z,14.58
2022-08-30T07:31:06.133Z,14.54
2022-08-30T07:34:08.862Z,14.83
2022-08-30T07:37:10.931Z,14.98
2022-08-30T07:40:20.243Z,14.85
2022-08-30T07:43:22.395Z,14.51
2022-08-30T07:46:24.816Z,14.94
2022-08-30T07:49:26.996Z,15.29
2022-08-30T07:52:30.835Z,15.14
2022-08-30T07:55:33.037Z,15.66
2022-08-30T07:58:37.563Z,15.20
2022-08-30T08:01:39.722Z,15.61
2022-08-30T08:04:41.819Z,15.64
2022-08-30T08:07:43.928Z,15.82
2022-08-30T08:10:46.429Z,16.22
2022-08-30T08:13:53.704Z,16.36
2022-08-30T08:16:56.527Z,16.38
2022-08-30T08:19:58.688Z,16.41
2022-08-30T08:23:00.795Z,15.67
2022-08-30T08:26:03.319Z,15.84
2022-08-30T08:29:07.521Z,16.12
2022-08-30T08:32:09.815Z,15.60
2022-08-30T08:35:11.941Z,16.10
2022-08-30T08:38:14.097Z,16.19
2022-08-30T08:42:04.100Z,16.24
2022-08-30T08:45:14.416Z,16.19
2022-08-30T08:48:51.790Z,16.98
2022-08-30T08:52:14.147Z,17.20
2022-08-30T08:55:19.100Z,17.00
2022-08-30T08:58:29.859Z,16.42
2022-08-30T09:01:33.508Z,16.79
2022-08-30T09:04:37.084Z,18.36
2022-08-30T09:07:42.647Z,18.53
2022-08-30T09:10:56.968Z,19.58
2022-08-30T09:13:59.462Z,17.80
2022-08-30T09:17:15.799Z,19.12
2022-08-30T09:20:43.310Z,18.91
2022-08-30T09:24:01.825Z,19.41
2022-08-30T09:31:04.457Z,19.01
2022-08-30T09:34:17.080Z,19.77
2022-08-30T09:37:36.099Z,19.59
2022-08-30T09:40:50.163Z,18.87
2022-08-30T09:44:17.202Z,20.71
2022-08-30T09:47:28.574Z,20.56
2022-08-30T09:50:33.620Z,19.81
2022-08-30T09:58:03.866Z,20.33
2022-08-30T10:01:36.081Z,20.24
2022-08-30T10:04:52.843Z,20.19
2022-08-30T10:08:16.000Z,20.37
2022-08-30T10:11:50.587Z,20.50
2022-08-30T10:15:27.978Z,21.32
2022-08-30T10:18:43.604Z,21.26
2022-08-30T10:21:58.177Z,20.90
2022-08-30T10:25:31.262Z,20.94
2022-08-30T10:29:07.792Z,21.67
2022-08-30T10:32:35.722Z,22.10
2022-08-30T10:35:51.146Z,22.26
2022-08-30T10:38:53.384Z,20.97
2022-08-30T10:42:13.718Z,19.45
2022-08-30T10:45:17.110Z,19.62
2022-08-30T10:48:48.586Z,20.23
2022-08-30T10:52:12.228Z,20.03
2022-08-30T10:55:25.845Z,20.18
2022-08-30T10:58:27.971Z,20.90
2022-08-30T11:02:20.332Z,20.96
2022-08-30T11:05:34.573Z,21.29
2022-08-30T11:09:26.650Z,21.95
2022-08-30T11:12:41.584Z,22.88
2022-08-30T11:16:18.844Z,21.31
2022-08-30T11:19:38.776Z,21.51
2022-08-30T11:23:18.898Z,21.99
2022-08-30T11:26:45.876Z,22.93
2022-08-30T11:29:48.556Z,22.96
2022-08-30T11:33:46.199Z,22.13
2022-08-30T11:37:01.506Z,21.38
2022-08-30T11:40:24.820Z,20.60
2022-08-30T11:43:40.347Z,20.15
2022-08-30T11:46:43.227Z,20.68
2022-08-30T11:50:39.073Z,21.95
2022-08-30T11:53:50.415Z,22.51
2022-08-30T11:57:04.459Z,22.61
2022-08-30T12:00:28.466Z,22.71
2022-08-30T12:03:32.887Z,21.69
2022-08-30T12:06:41.080Z,20.94
2022-08-30T12:09:47.934Z,20.53
2022-08-30T12:12:51.714Z,21.56
2022-08-30T12:16:03.365Z,22.51
2022-08-30T12:19:21.459Z,23.86
2022-08-30T12:22:23.740Z,23.97
2022-08-30T12:25:33.883Z,22.13
2022-08-30T12:28:37.431Z,21.01
2022-08-30T12:31:58.353Z,22.27
2022-08-30T12:35:03.790Z,22.41
2022-08-30T12:38:12.182Z,22.13
2022-08-30T12:41:19.754Z,22.79
2022-08-30T12:44:27.510Z,22.73
2022-08-30T12:47:54.756Z,22.37
2022-08-30T12:50:59.270Z,22.89
2022-08-30T12:54:15.064Z,22.67
2022-08-30T12:57:43.219Z,22.19
2022-08-30T13:00:47.314Z,22.86
2022-08-30T13:04:17.297Z,23.56
2022-08-30T13:07:34.200Z,22.86
2022-08-30T13:10:37.525Z,23.06
2022-08-30T13:13:52.602Z,24.04
2022-08-30T13:17:07.079Z,23.61
2022-08-30T13:20:12.111Z,22.72
2022-08-30T13:23:23.145Z,23.22
2022-08-30T13:26:25.414Z,22.05
2022-08-30T13:29:29.534Z,22.81
2022-08-30T13:32:38.744Z,23.06
2022-08-30T13:35:41.209Z,23.60
2022-08-30T13:38:43.358Z,23.14
2022-08-30T13:41:45.482Z,23.23
2022-08-30T13:44:47.987Z,23.46
2022-08-30T13:47:50.370Z,23.90
2022-08-30T13:50:53.638Z,23.69
2022-08-30T13:53:55.922Z,22.90
2022-08-30T13:56:59.123Z,22.46
2022-08-30T14:00:01.271Z,22.74
2022-08-30T14:03:03.430Z,24.69
2022-08-30T14:06:31.607Z,24.23
2022-08-30T14:09:27.686Z,23.63
2022-08-30T14:16:26.580Z,26.40
2022-08-30T14:19:18.115Z,27.28
2022-08-30T14:22:20.746Z,23.36
2022-08-30T14:25:23.089Z,22.84
2022-08-30T14:28:28.474Z,22.65
2022-08-30T14:31:32.649Z,22.56
2022-08-30T14:34:35.631Z,25.02
2022-08-30T14:37:37.796Z,29.22
2022-08-30T14:40:41.479Z,24.76
2022-08-30T14:43:43.891Z,26.18
2022-08-30T14:46:46.334Z,29.20
2022-08-30T14:49:48.473Z,28.62
2022-08-30T14:52:50.596Z,30.94
2022-08-30T14:55:52.756Z,30.10
2022-08-30T14:59:00.320Z,29.60
2022-08-30T15:02:02.615Z,27.23
2022-08-30T15:05:06.937Z,27.75
2022-08-30T15:08:10.727Z,24.06
2022-08-30T15:11:14.663Z,23.54
2022-08-30T15:14:17.557Z,23.29
2022-08-30T15:17:19.686Z,22.97
2022-08-30T15:20:22.194Z,26.85
2022-08-30T15:23:24.939Z,29.24
2022-08-30T15:26:27.531Z,30.01
2022-08-30T15:29:31.588Z,28.68
2022-08-30T15:32:33.914Z,28.19
2022-08-30T15:35:36.088Z,26.40
2022-08-30T15:38:38.362Z,27.68
2022-08-30T15:41:44.439Z,28.63
2022-08-30T15:44:51.367Z,29.73
2022-08-30T15:47:53.982Z,30.74
2022-08-30T15:50:59.061Z,30.36
2022-08-30T15:54:01.176Z,27.56
2022-08-30T15:57:05.864Z,28.03
2022-08-30T16:00:10.099Z,30.22
2022-08-30T16:03:12.398Z,31.04
2022-08-30T16:06:16.376Z,30.86
2022-08-30T16:09:18.584Z,31.57
2022-08-30T16:12:23.660Z,30.19
2022-08-30T16:15:26.811Z,30.01
2022-08-30T16:18:29.092Z,30.25
2022-08-30T16:21:33.023Z,29.88
2022-08-30T16:24:35.116Z,29.67
2022-08-30T16:27:42.156Z,30.36
2022-08-30T16:30:44.314Z,29.13
2022-08-30T16:33:47.615Z,30.50
2022-08-30T16:36:55.087Z,29.28
2022-08-30T16:39:57.245Z,28.83
2022-08-30T16:42:59.343Z,27.01
2022-08-30T16:46:03.415Z,27.71
2022-08-30T16:49:05.692Z,28.25
2022-08-30T16:52:11.462Z,28.16
2022-08-30T16:55:13.793Z,27.72
2022-08-30T16:58:18.851Z,27.28
2022-08-30T17:01:22.201Z,25.92
2022-08-30T17:04:24.378Z,26.58
2022-08-30T17:07:27.356Z,26.68
2022-08-30T17:10:33.367Z,26.97
2022-08-30T17:13:35.727Z,26.29
2022-08-30T17:16:38.404Z,22.99
2022-08-30T17:19:43.090Z,24.59
2022-08-30T17:22:46.223Z,26.61
2022-08-30T17:25:48.819Z,25.85
2022-08-30T17:28:50.949Z,26.18
2022-08-30T17:31:53.127Z,25.85
2022-08-30T17:34:55.282Z,25.82
2022-08-30T17:37:57.450Z,25.37
2022-08-30T17:41:07.833Z,24.88
2022-08-30T17:44:12.128Z,25.05
2022-08-30T17:47:14.438Z,25.32
2022-08-30T17:50:19.429Z,25.52
2022-08-30T17:53:21.695Z,25.98
2022-08-30T17:56:34.148Z,25.57
2022-08-30T17:59:37.630Z,24.98
2022-08-30T18:02:39.828Z,25.22
2022-08-30T18:05:43.719Z,25.00
2022-08-30T18:08:49.024Z,24.58
2022-08-30T18:11:56.248Z,23.63
2022-08-30T18:14:58.757Z,22.89
2022-08-30T18:18:00.976Z,22.60
2022-08-30T18:21:16.651Z,22.31
2022-08-30T18:24:18.992Z,21.90
2022-08-30T18:27:21.305Z,22.32
2022-08-30T18:30:33.226Z,21.82
2022-08-30T18:33:36.848Z,21.38
2022-08-30T18:36:41.345Z,19.78
2022-08-30T18:39:43.571Z,18.96
2022-08-30T18:42:45.693Z,18.40
2022-08-30T18:45:50.838Z,18.22
2022-08-30T18:48:52.965Z,17.52
2022-08-30T18:51:55.066Z,17.52
2022-08-30T18:54:57.199Z,17.32
2022-08-30T18:58:02.528Z,17.19
2022-08-30T19:01:04.851Z,17.30
2022-08-30T19:04:07.095Z,17.06
2022-08-30T19:07:11.107Z,16.48
2022-08-30T19:10:15.669Z,16.05
2022-08-30T19:13:23.411Z,16.14
2022-08-30T19:16:26.258Z,15.78
2022-08-30T19:19:28.391Z,15.81
2022-08-30T19:22:44.575Z,15.96
2022-08-30T19:25:53.395Z,15.21
2022-08-30T19:28:56.404Z,14.61
2022-08-30T19:31:58.471Z,14.29
2022-08-30T19:35:00.773Z,13.75
2022-08-30T19:38:02.951Z,13.65
2022-08-30T19:41:05.315Z,13.48
2022-08-30T19:44:07.482Z,13.33
2022-08-30T19:47:09.677Z,12.97
2022-08-30T19:50:12.758Z,12.88
2022-08-30T19:53:14.827Z,12.97
2022-08-30T19:56:16.919Z,12.79
2022-08-30T19:59:19.366Z,13.08
2022-08-30T20:02:22.384Z,13.23
2022-08-30T20:05:24.515Z,13.10
2022-08-30T20:08:26.600Z,12.69
2022-08-30T20:11:28.765Z,12.51
2022-08-30T20:14:30.962Z,12.53
2022-08-30T20:17:47.819Z,12.71
2022-08-30T20:20:55.351Z,12.71
2022-08-30T20:23:57.415Z,12.26
2022-08-30T20:26:59.487Z,11.91
2022-08-30T20:30:03.892Z,11.77
2022-08-30T20:33:08.996Z,11.69
2022-08-30T20:36:11.406Z,11.60
2022-08-30T20:39:17.393Z,11.73
2022-08-30T20:42:20.472Z,12.20
2022-08-30T20:45:22.553Z,12.03
2022-08-30T20:48:27.103Z,11.70
2022-08-30T20:51:29.299Z,11.52
2022-08-30T20:54:31.867Z,11.60
2022-08-30T20:57:34.111Z,11.55
2022-08-30T21:00:36.339Z,11.70
2022-08-30T21:03:38.999Z,11.89
2022-08-30T21:06:41.076Z,11.74
2022-08-30T21:09:43.275Z,11.83
2022-08-30T21:12:45.393Z,11.76
2022-08-30T21:15:55.417Z,11.63
2022-08-30T21:19:03.470Z,11.69
2022-08-30T21:22:05.775Z,11.63
2022-08-30T21:25:08.397Z,11.68
2022-08-30T21:28:10.616Z,11.75
2022-08-30T21:31:17.020Z,11.67
2022-08-30T21:34:19.200Z,11.54
2022-08-30T21:37:21.894Z,11.49
2022-08-30T21:40:24.003Z,11.57
2022-08-30T21:43:26.145Z,11.52
2022-08-30T21:46:32.367Z,11.45
2022-08-30T21:49:34.708Z,11.48
2022-08-30T21:52:36.871Z,11.43
2022-08-30T21:55:38.983Z,11.37
2022-08-30T21:58:41.584Z,11.30
2022-08-30T22:01:43.799Z,11.39
2022-08-30T22:04:45.939Z,11.43
2022-08-30T22:07:48.023Z,11.34
2022-08-30T22:10:50.308Z,11.27
2022-08-30T22:13:53.042Z,11.19
2022-08-30T22:16:55.222Z,11.25
2022-08-30T22:19:57.402Z,11.11
2022-08-30T22:22:59.464Z,11.36
2022-08-30T22:26:01.826Z,11.37
2022-08-30T22:29:05.645Z,11.27
2022-08-30T22:32:08.382Z,11.38
2022-08-30T22:35:11.005Z,11.36
2022-08-30T22:38:14.538Z,11.56
2022-08-30T22:41:18.125Z,11.65
2022-08-30T22:44:20.230Z,11.72
2022-08-30T22:47:22.344Z,12.05
2022-08-30T22:50:24.415Z,11.91
2022-08-30T22:53:26.515Z,11.93
2022-08-30T22:56:28.795Z,11.98
2022-08-30T22:59:32.240Z,11.89
2022-08-30T23:02:35.097Z,11.81
2022-08-30T23:05:37.518Z,11.90
2022-08-30T23:08:39.647Z,11.98
2022-08-30T23:11:41.738Z,11.80
2022-08-30T23:14:43.819Z,11.75
2022-08-30T23:17:45.925Z,11.67
2022-08-30T23:20:48.038Z,11.70
2022-08-30T23:24:09.668Z,11.58
2022-08-30T23:27:30.380Z,11.67
2022-08-30T23:30:51.696Z,11.58
2022-08-30T23:34:12.607Z,11.73
2022-08-30T23:37:33.508Z,11.70
2022-08-30T23:40:54.499Z,11.83
2022-08-30T23:44:15.356Z,11.62
2022-08-30T23:47:36.340Z,11.43
2022-08-30T23:50:57.040Z,11.60
2022-08-30T23:54:18.042Z,11.51
2022-08-30T23:57:38.819Z,11.52
